Hlavní strana
METAR-TAF:

METAR-TAF

Letiště :

Savonlinna, Finsko

zeměpisná šířka: 61-57N, zeměpisná délka: 028-57E, výška: 95 m

Aktuální stav počasí

Zpráva byla vytvořena před 19 minutami, v 23:20 UTC
Východojihovýchodní vítr 10 kt
Teplota 0°C
Vlhkost vzduchu 93%
Tlak 1017 hPa
Viditelnost: 3600 m
Zataženo ve výšce 400 ft
slabé sněžení

METAR: EFSA 122320Z AUTO 11010KT 3600 -SN OVC004 M00/M01 Q1017

Čas: 01:39 (23:39 UTC)

Předpověď počasí

Zpráva byla vytvořena před 6 hodinami a 10 minutami, v 17:29 UTC
Předpověď platná od 12 v 18 UTC do 12 v 21 UTC
Východojihovýchodní vítr 6 kt
Viditelnost 10 km a více
Zataženo ve výšce 500 ft
Dočasný
od 12 v 18 UTC do 12 v 21 UTC
Viditelnost: 2000 m
Oblačno až skoro zataženo ve výšce 400 ft
slabé sněžení

TAF: EFSA 121729Z 1218/1221 12006KT 9999 OVC005 TEMPO 1218/1221 2000 -SN BKN004

Stav a předpovědi počasí z více než 4 000 letišť (zprávy METAR a TAF).

Červené a žluté tečky na mapě představují dostupné meteorologické stanice.

Když kurzor umístíte na tečku, zobrazí se název stanice.

Pak kliknutím zobrazíte stav a předpověď počasí.

Chcete-li změnit mapu, kliknutím na zelené tlačítko se znaménkem +mapu přiblížíte, kliknutím na zelené tlačítko se znaménkem – mapu oddálíte a kliknutím na zelené šipky přejdete na sousední mapy.


METAR-TAF: